createdAt,value
2018-09-03T00:01:55.017Z,5.87
2018-09-03T00:04:22.882Z,7.30
2018-09-03T00:06:50.766Z,8.93
2018-09-03T00:09:18.686Z,15.87
2018-09-03T00:11:46.587Z,7.77
2018-09-03T00:14:14.666Z,8.07
2018-09-03T00:16:42.559Z,13.07
2018-09-03T00:19:10.447Z,9.87
2018-09-03T00:21:38.385Z,11.77
2018-09-03T00:24:06.203Z,7.73
2018-09-03T00:26:33.880Z,5.63
2018-09-03T00:29:01.626Z,6.40
2018-09-03T00:31:34.793Z,4.60
2018-09-03T00:34:08.093Z,29.70
2018-09-03T00:36:41.288Z,7.33
2018-09-03T00:39:14.579Z,3.00
2018-09-03T00:41:47.780Z,2.80
2018-09-03T00:44:20.975Z,5.37
2018-09-03T00:46:54.199Z,5.00
2018-09-03T00:49:22.133Z,11.00
2018-09-03T00:51:49.818Z,15.80
2018-09-03T00:54:17.517Z,4.13
2018-09-03T00:56:45.263Z,5.73
2018-09-03T00:59:12.969Z,4.80
2018-09-03T01:01:40.679Z,4.40
2018-09-03T01:04:08.465Z,6.07
2018-09-03T01:06:36.175Z,5.80
2018-09-03T01:09:05.011Z,6.60
2018-09-03T01:11:32.743Z,6.33
2018-09-03T01:14:00.443Z,6.90
2018-09-03T01:16:28.211Z,7.80
2018-09-03T01:18:56.644Z,6.50
2018-09-03T01:21:25.333Z,7.03
2018-09-03T01:23:53.467Z,5.43
2018-09-03T01:26:21.177Z,6.63
2018-09-03T01:28:48.897Z,6.50
2018-09-03T01:31:19.583Z,5.47
2018-09-03T01:33:49.489Z,4.67
2018-09-03T01:36:17.625Z,4.47
2018-09-03T01:38:45.373Z,4.37
2018-09-03T01:41:13.233Z,3.70
2018-09-03T01:43:40.944Z,4.33
2018-09-03T01:48:43.257Z,4.43
2018-09-03T01:51:11.009Z,3.50
2018-09-03T01:53:38.956Z,8.33
2018-09-03T01:56:07.364Z,3.27
2018-09-03T01:58:35.082Z,3.10
2018-09-03T02:01:03.009Z,3.47
2018-09-03T02:03:30.776Z,8.70
2018-09-03T02:05:58.501Z,2.80
2018-09-03T02:08:26.347Z,4.77
2018-09-03T02:10:54.056Z,9.03
2018-09-03T02:13:21.859Z,10.07
2018-09-03T02:15:49.596Z,7.53
2018-09-03T02:18:17.364Z,7.90
2018-09-03T02:20:45.131Z,4.57
2018-09-03T02:23:12.875Z,3.80
2018-09-03T02:25:40.604Z,4.10
2018-09-03T02:28:08.345Z,4.00
2018-09-03T02:30:36.188Z,4.47
2018-09-03T02:33:04.151Z,4.57
2018-09-03T02:35:31.847Z,6.70
2018-09-03T02:37:59.545Z,5.70
2018-09-03T02:40:27.285Z,4.93
2018-09-03T02:42:55.051Z,6.57
2018-09-03T02:45:22.715Z,7.97
2018-09-03T02:47:50.393Z,9.53
2018-09-03T02:50:18.173Z,7.47
2018-09-03T02:52:45.867Z,5.67
2018-09-03T02:55:13.592Z,7.53
2018-09-03T02:57:41.323Z,5.80
2018-09-03T03:00:09.120Z,6.13
2018-09-03T03:02:36.839Z,5.30
2018-09-03T03:05:05.113Z,4.90
2018-09-03T03:07:32.830Z,5.80
2018-09-03T03:10:00.548Z,5.73
2018-09-03T03:12:28.341Z,5.63
2018-09-03T03:14:56.985Z,5.27
2018-09-03T03:17:24.796Z,5.93
2018-09-03T03:19:52.539Z,7.17
2018-09-03T03:22:20.452Z,6.73
2018-09-03T03:24:48.327Z,6.53
2018-09-03T03:27:16.404Z,6.93
2018-09-03T03:29:44.190Z,7.80
2018-09-03T03:32:11.936Z,6.23
2018-09-03T03:34:39.623Z,5.90
2018-09-03T03:37:07.708Z,6.70
2018-09-03T03:39:35.482Z,6.87
2018-09-03T03:42:03.190Z,4.57
2018-09-03T03:44:30.902Z,5.13
2018-09-03T03:46:58.716Z,6.00
2018-09-03T03:49:26.468Z,4.20
2018-09-03T03:51:54.202Z,6.07
2018-09-03T03:54:21.928Z,6.43
2018-09-03T03:56:49.732Z,8.63
2018-09-03T03:59:17.413Z,8.73
2018-09-03T04:01:45.193Z,11.60
2018-09-03T04:04:12.877Z,11.57
2018-09-03T04:06:40.592Z,10.30
2018-09-03T04:09:09.779Z,7.97
2018-09-03T04:11:37.545Z,8.50
2018-09-03T04:14:05.247Z,7.27
2018-09-03T04:16:32.961Z,7.83
2018-09-03T04:19:00.644Z,5.20
2018-09-03T04:21:28.361Z,4.97
2018-09-03T04:23:56.233Z,4.77
2018-09-03T04:26:23.944Z,5.30
2018-09-03T04:28:51.775Z,4.27
2018-09-03T04:31:19.680Z,4.93
2018-09-03T04:33:47.421Z,4.53
2018-09-03T04:36:15.178Z,4.00
2018-09-03T04:38:43.026Z,5.70
2018-09-03T04:41:10.752Z,5.30
2018-09-03T04:43:38.480Z,5.27
2018-09-03T04:46:06.340Z,5.70
2018-09-03T04:48:34.124Z,7.63
2018-09-03T04:51:01.843Z,5.80
2018-09-03T04:53:29.641Z,4.97
2018-09-03T04:55:57.348Z,5.37
2018-09-03T04:58:25.090Z,7.13
2018-09-03T05:00:52.816Z,6.17
2018-09-03T05:03:20.549Z,5.70
2018-09-03T05:05:48.346Z,7.00
2018-09-03T05:08:16.120Z,7.30
2018-09-03T05:10:43.924Z,6.70
2018-09-03T05:13:11.607Z,7.40
2018-09-03T05:15:39.334Z,7.23
2018-09-03T05:18:07.124Z,6.97
2018-09-03T05:20:34.984Z,6.47
2018-09-03T05:23:02.776Z,7.30
2018-09-03T05:25:30.492Z,6.77
2018-09-03T05:27:58.200Z,6.20
2018-09-03T05:30:25.920Z,6.07
2018-09-03T05:32:53.734Z,5.33
2018-09-03T05:35:21.424Z,6.63
2018-09-03T05:37:49.146Z,5.50
2018-09-03T05:40:16.891Z,5.83
2018-09-03T05:42:44.564Z,5.73
2018-09-03T05:45:12.285Z,5.33
2018-09-03T05:47:40.017Z,5.73
2018-09-03T05:50:07.768Z,5.00
2018-09-03T05:52:35.495Z,4.73
2018-09-03T05:55:03.232Z,5.07
2018-09-03T05:57:30.934Z,4.87
2018-09-03T05:59:58.640Z,4.90
2018-09-03T06:02:26.349Z,4.47
2018-09-03T06:04:54.138Z,4.10
2018-09-03T06:07:21.884Z,3.60
2018-09-03T06:09:49.588Z,2.73
2018-09-03T06:12:17.309Z,2.90
2018-09-03T06:14:45.045Z,2.90
2018-09-03T06:17:12.735Z,2.90
2018-09-03T06:19:40.444Z,2.70
2018-09-03T06:22:08.325Z,2.60
2018-09-03T06:24:36.080Z,2.37
2018-09-03T06:27:03.799Z,2.43
2018-09-03T06:29:31.583Z,2.60
2018-09-03T06:31:59.289Z,1.90
2018-09-03T06:34:27.000Z,1.93
2018-09-03T06:36:54.761Z,2.40
2018-09-03T06:39:22.484Z,1.90
2018-09-03T06:41:50.207Z,2.20
2018-09-03T06:44:17.941Z,2.77
2018-09-03T06:46:45.738Z,2.17
2018-09-03T06:49:13.576Z,2.00
2018-09-03T06:51:41.300Z,1.80
2018-09-03T06:54:09.148Z,2.30
2018-09-03T06:56:37.947Z,2.13
2018-09-03T06:59:05.736Z,2.10
2018-09-03T07:01:34.099Z,1.77
2018-09-03T07:04:01.860Z,2.20
2018-09-03T07:06:29.591Z,1.90
2018-09-03T07:08:57.412Z,2.00
2018-09-03T07:11:25.163Z,1.43
2018-09-03T07:13:52.893Z,1.90
2018-09-03T07:16:20.615Z,1.67
2018-09-03T07:18:48.346Z,1.60
2018-09-03T07:21:16.102Z,1.80
2018-09-03T07:23:43.804Z,2.10
2018-09-03T07:26:11.660Z,1.82
2018-09-03T07:28:39.455Z,2.33
2018-09-03T07:31:07.167Z,2.22
2018-09-03T07:33:34.985Z,2.17
2018-09-03T07:36:02.738Z,1.87
2018-09-03T07:38:30.507Z,1.65
2018-09-03T07:40:58.281Z,2.02
2018-09-03T07:43:26.123Z,2.00
2018-09-03T07:45:53.892Z,1.85
2018-09-03T07:48:21.626Z,1.75
2018-09-03T07:50:49.380Z,1.77
2018-09-03T07:53:17.095Z,1.92
2018-09-03T07:55:44.808Z,2.02
2018-09-03T07:58:12.548Z,1.90
2018-09-03T08:00:40.313Z,1.70
2018-09-03T08:03:08.061Z,1.70
2018-09-03T08:05:35.809Z,2.12
2018-09-03T08:08:03.588Z,1.85
2018-09-03T08:10:31.375Z,2.08
2018-09-03T08:12:59.153Z,1.70
2018-09-03T08:15:26.891Z,1.80
2018-09-03T08:17:54.622Z,2.15
2018-09-03T08:20:22.409Z,1.60
2018-09-03T08:22:50.151Z,1.75
2018-09-03T08:25:17.870Z,1.90
2018-09-03T08:27:45.624Z,1.92
2018-09-03T08:30:13.366Z,1.90
2018-09-03T08:32:41.220Z,1.95
2018-09-03T08:35:09.125Z,1.80
2018-09-03T08:37:36.841Z,1.60
2018-09-03T08:40:04.817Z,1.55
2018-09-03T08:42:32.639Z,1.50
2018-09-03T08:45:00.393Z,1.65
2018-09-03T08:47:28.107Z,1.67
2018-09-03T08:49:56.022Z,1.45
2018-09-03T08:52:23.790Z,1.67
2018-09-03T08:54:51.544Z,1.87
2018-09-03T08:57:19.270Z,1.72
2018-09-03T08:59:47.125Z,1.55
2018-09-03T09:02:14.842Z,1.77
2018-09-03T09:04:42.605Z,2.00
2018-09-03T09:07:10.443Z,1.77
2018-09-03T09:09:38.256Z,1.55
2018-09-03T09:12:05.988Z,1.82
2018-09-03T09:14:33.777Z,1.75
2018-09-03T09:17:01.503Z,1.70
2018-09-03T09:19:29.278Z,1.47
2018-09-03T09:21:57.035Z,1.70
2018-09-03T09:24:24.765Z,1.40
2018-09-03T09:26:52.520Z,1.45
2018-09-03T09:29:20.337Z,1.80
2018-09-03T09:31:48.050Z,1.75
2018-09-03T09:34:15.767Z,1.50
2018-09-03T09:36:43.576Z,1.82
2018-09-03T09:39:11.304Z,1.98
2018-09-03T09:41:39.052Z,1.77
2018-09-03T09:44:06.770Z,2.17
2018-09-03T09:46:34.594Z,1.65
2018-09-03T09:49:02.340Z,1.25
2018-09-03T09:51:30.072Z,1.60
2018-09-03T09:53:58.293Z,1.60
2018-09-03T09:56:26.420Z,1.60
2018-09-03T09:58:54.365Z,2.08
2018-09-03T10:01:27.848Z,1.60
2018-09-03T10:03:55.681Z,1.70
2018-09-03T10:06:23.489Z,1.70
2018-09-03T10:08:51.228Z,1.60
2018-09-03T10:11:18.969Z,1.80
2018-09-03T10:13:46.723Z,1.72
2018-09-03T10:16:14.475Z,1.50
2018-09-03T10:18:42.244Z,1.72
2018-09-03T10:21:10.066Z,1.75
2018-09-03T10:23:37.760Z,1.65
2018-09-03T10:26:05.496Z,1.70
2018-09-03T10:28:33.212Z,1.65
2018-09-03T10:31:01.005Z,1.60
2018-09-03T10:33:28.683Z,1.50
2018-09-03T10:35:56.451Z,1.27
2018-09-03T10:38:24.165Z,1.47
2018-09-03T10:40:51.868Z,1.42
2018-09-03T10:43:19.594Z,1.90
2018-09-03T10:45:47.353Z,1.50
2018-09-03T10:48:16.448Z,1.60
2018-09-03T10:50:44.512Z,2.25
2018-09-03T10:53:12.194Z,1.52
2018-09-03T10:55:40.506Z,1.65
2018-09-03T10:58:08.644Z,1.80
2018-09-03T11:00:36.356Z,1.35
2018-09-03T11:03:04.139Z,1.42
2018-09-03T11:05:31.847Z,1.52
2018-09-03T11:07:59.812Z,1.50
2018-09-03T11:10:27.557Z,1.47
2018-09-03T11:12:55.331Z,1.40
2018-09-03T11:15:23.057Z,1.35
2018-09-03T11:17:50.769Z,1.47
2018-09-03T11:20:23.352Z,1.75
2018-09-03T11:22:51.093Z,1.85
2018-09-03T11:25:18.868Z,1.92
2018-09-03T11:27:47.875Z,1.62
2018-09-03T11:30:15.648Z,1.60
2018-09-03T11:32:47.819Z,1.30
2018-09-03T11:35:15.544Z,1.60
2018-09-03T11:37:43.209Z,1.85
2018-09-03T11:40:10.913Z,1.65
2018-09-03T11:42:38.635Z,1.80
2018-09-03T11:45:06.537Z,1.92
2018-09-03T11:47:34.236Z,1.70
2018-09-03T11:50:01.921Z,1.80
2018-09-03T11:52:29.684Z,1.37
2018-09-03T11:54:57.400Z,1.60
2018-09-03T11:57:25.130Z,1.55
2018-09-03T11:59:52.865Z,1.80
2018-09-03T12:02:20.583Z,1.42
2018-09-03T12:04:48.278Z,1.57
2018-09-03T12:07:16.008Z,1.70
2018-09-03T12:09:43.737Z,1.95
2018-09-03T12:12:11.446Z,1.70
2018-09-03T12:14:41.560Z,1.80
2018-09-03T12:17:09.349Z,1.80
2018-09-03T12:19:37.085Z,1.80
2018-09-03T12:22:04.797Z,1.92
2018-09-03T12:24:32.495Z,2.25
2018-09-03T12:27:00.274Z,1.57
2018-09-03T12:29:27.984Z,1.60
2018-09-03T12:31:55.833Z,1.90
2018-09-03T12:34:23.591Z,1.70
2018-09-03T12:36:51.299Z,1.72
2018-09-03T12:39:19.082Z,1.98
2018-09-03T12:41:46.828Z,1.77
2018-09-03T12:44:14.536Z,1.92
2018-09-03T12:46:42.220Z,1.77
2018-09-03T12:49:09.972Z,2.00
2018-09-03T12:51:37.653Z,2.20
2018-09-03T12:54:05.640Z,1.87
2018-09-03T12:56:33.409Z,1.67
2018-09-03T12:59:01.172Z,2.12
2018-09-03T13:01:28.944Z,1.70
2018-09-03T13:03:56.637Z,1.98
2018-09-03T13:06:24.342Z,1.57
2018-09-03T13:08:52.128Z,2.20
2018-09-03T13:11:19.833Z,2.12
2018-09-03T13:13:47.525Z,1.90
2018-09-03T13:16:15.314Z,2.40
2018-09-03T13:18:43.096Z,2.10
2018-09-03T13:21:10.908Z,1.70
2018-09-03T13:23:38.610Z,1.83
2018-09-03T13:26:06.320Z,2.30
2018-09-03T13:28:34.069Z,1.63
2018-09-03T13:31:01.796Z,1.80
2018-09-03T13:33:29.640Z,1.60
2018-09-03T13:35:57.345Z,1.87
2018-09-03T13:38:25.083Z,1.80
2018-09-03T13:40:52.981Z,1.87
2018-09-03T13:43:20.747Z,1.67
2018-09-03T13:45:48.642Z,1.80
2018-09-03T13:48:16.398Z,2.13
2018-09-03T13:50:50.720Z,1.90
2018-09-03T13:53:18.489Z,1.90
2018-09-03T13:55:46.301Z,1.50
2018-09-03T13:58:14.066Z,1.70
2018-09-03T14:00:41.836Z,1.40
2018-09-03T14:03:09.585Z,1.70
2018-09-03T14:05:37.380Z,1.60
2018-09-03T14:08:05.102Z,1.90
2018-09-03T14:10:32.867Z,1.83
2018-09-03T14:13:00.672Z,1.90
2018-09-03T14:15:28.455Z,2.27
2018-09-03T14:17:56.281Z,2.20
2018-09-03T14:20:24.044Z,2.30
2018-09-03T14:22:51.814Z,2.30
2018-09-03T14:25:19.585Z,1.83
2018-09-03T14:27:47.350Z,1.73
2018-09-03T14:30:15.089Z,1.90
2018-09-03T14:32:42.817Z,2.17
2018-09-03T14:35:10.554Z,2.00
2018-09-03T14:37:38.308Z,2.30
2018-09-03T14:40:06.181Z,1.67
2018-09-03T14:42:34.032Z,2.17
2018-09-03T14:45:01.728Z,2.07
2018-09-03T14:47:29.501Z,2.00
2018-09-03T14:49:57.393Z,2.20
2018-09-03T14:52:25.192Z,2.20
2018-09-03T14:54:53.216Z,1.80
2018-09-03T14:57:21.057Z,2.33
2018-09-03T14:59:48.931Z,2.23
2018-09-03T15:02:16.729Z,2.70
2018-09-03T15:04:44.445Z,1.73
2018-09-03T15:07:12.196Z,1.73
2018-09-03T15:09:39.937Z,1.97
2018-09-03T15:12:07.699Z,1.97
2018-09-03T15:14:35.429Z,2.00
2018-09-03T15:17:03.187Z,2.10
2018-09-03T15:19:30.994Z,2.27
2018-09-03T15:21:58.745Z,2.00
2018-09-03T15:24:26.471Z,2.07
2018-09-03T15:26:54.189Z,2.40
2018-09-03T15:29:21.911Z,2.10
2018-09-03T15:31:49.869Z,2.53
2018-09-03T15:34:17.578Z,2.17
2018-09-03T15:36:45.478Z,2.20
2018-09-03T15:39:13.405Z,1.80
2018-09-03T15:41:41.341Z,3.00
2018-09-03T15:44:09.053Z,2.13
2018-09-03T15:46:36.790Z,2.33
2018-09-03T15:49:04.562Z,2.13
2018-09-03T15:51:32.251Z,2.03
2018-09-03T15:54:00.064Z,2.70
2018-09-03T15:56:27.869Z,1.87
2018-09-03T15:58:55.560Z,2.33
2018-09-03T16:01:23.265Z,1.87
2018-09-03T16:03:51.006Z,2.20
2018-09-03T16:06:18.747Z,2.50
2018-09-03T16:08:46.440Z,2.27
2018-09-03T16:11:14.212Z,2.53
2018-09-03T16:13:41.892Z,2.30
2018-09-03T16:16:09.997Z,2.50
2018-09-03T16:18:37.850Z,2.30
2018-09-03T16:21:05.832Z,2.50
2018-09-03T16:23:33.860Z,2.43
2018-09-03T16:26:01.647Z,2.07
2018-09-03T16:28:29.409Z,2.37
2018-09-03T16:30:57.100Z,2.67
2018-09-03T16:33:25.930Z,2.27
2018-09-03T16:35:53.658Z,2.90
2018-09-03T16:38:21.348Z,2.57
2018-09-03T16:40:49.049Z,3.53
2018-09-03T16:43:16.759Z,2.37
2018-09-03T16:45:44.476Z,2.23
2018-09-03T16:48:12.238Z,2.63
2018-09-03T16:50:39.932Z,2.67
2018-09-03T16:53:07.616Z,2.33
2018-09-03T16:55:35.359Z,2.97
2018-09-03T16:58:03.027Z,2.50
2018-09-03T17:00:30.739Z,2.40
2018-09-03T17:02:58.464Z,2.80
2018-09-03T17:05:26.232Z,2.87
2018-09-03T17:07:53.992Z,2.63
2018-09-03T17:10:21.722Z,2.30
2018-09-03T17:12:49.527Z,3.40
2018-09-03T17:15:17.252Z,2.93
2018-09-03T17:17:45.016Z,2.13
2018-09-03T17:20:12.712Z,3.00
2018-09-03T17:22:40.408Z,2.17
2018-09-03T17:25:08.152Z,2.70
2018-09-03T17:27:35.868Z,2.60
2018-09-03T17:30:03.656Z,2.90
2018-09-03T17:32:31.417Z,2.90
2018-09-03T17:34:59.112Z,2.43
2018-09-03T17:37:26.814Z,3.47
2018-09-03T17:39:54.529Z,2.77
2018-09-03T17:42:22.207Z,3.00
2018-09-03T17:44:50.024Z,2.47
2018-09-03T17:47:17.817Z,3.73
2018-09-03T17:49:45.592Z,2.17
2018-09-03T17:52:13.287Z,2.20
2018-09-03T17:54:41.095Z,3.07
2018-09-03T17:57:08.773Z,2.50
2018-09-03T17:59:36.464Z,2.50
2018-09-03T18:02:04.205Z,2.47
2018-09-03T18:04:31.948Z,3.07
2018-09-03T18:06:59.645Z,4.77
2018-09-03T18:09:27.362Z,4.10
2018-09-03T18:11:55.050Z,4.20
2018-09-03T18:14:22.720Z,3.53
2018-09-03T18:16:50.619Z,3.67
2018-09-03T18:19:18.311Z,4.83
2018-09-03T18:21:46.099Z,4.87
2018-09-03T18:24:13.820Z,3.57
2018-09-03T18:26:41.527Z,2.70
2018-09-03T18:29:09.321Z,6.23
2018-09-03T18:31:37.008Z,2.70
2018-09-03T18:34:04.781Z,2.17
2018-09-03T18:36:32.516Z,2.10
2018-09-03T18:39:00.204Z,2.23
2018-09-03T18:41:27.883Z,2.23
2018-09-03T18:43:55.622Z,2.33
2018-09-03T18:46:23.312Z,7.37
2018-09-03T18:48:51.024Z,3.43
2018-09-03T18:51:18.803Z,2.33
2018-09-03T18:53:46.505Z,5.93
2018-09-03T18:56:14.495Z,2.60
2018-09-03T18:58:42.208Z,3.13
2018-09-03T19:01:09.911Z,2.40
2018-09-03T19:03:37.616Z,2.50
2018-09-03T19:06:05.722Z,2.53
2018-09-03T19:08:33.452Z,2.60
2018-09-03T19:11:01.142Z,2.60
2018-09-03T19:13:29.109Z,2.53
2018-09-03T19:15:56.866Z,2.53
2018-09-03T19:18:24.576Z,1.73
2018-09-03T19:20:52.494Z,2.10
2018-09-03T19:23:20.206Z,3.33
2018-09-03T19:25:47.892Z,2.00
2018-09-03T19:28:15.642Z,2.90
2018-09-03T19:30:43.344Z,2.40
2018-09-03T19:33:11.016Z,2.57
2018-09-03T19:35:38.736Z,2.27
2018-09-03T19:38:06.472Z,2.20
2018-09-03T19:40:34.183Z,3.00
2018-09-03T19:43:01.867Z,3.10
2018-09-03T19:45:29.585Z,4.97
2018-09-03T19:47:57.257Z,3.87
2018-09-03T19:50:24.977Z,2.33
2018-09-03T19:52:52.684Z,2.80
2018-09-03T19:55:20.412Z,3.97
2018-09-03T19:57:48.088Z,2.10
2018-09-03T20:00:15.760Z,2.60
2018-09-03T20:02:43.508Z,2.60
2018-09-03T20:05:11.245Z,1.97
2018-09-03T20:07:39.019Z,2.40
2018-09-03T20:10:06.860Z,1.97
2018-09-03T20:12:34.636Z,3.23
2018-09-03T20:15:02.408Z,2.97
2018-09-03T20:17:30.123Z,3.07
2018-09-03T20:19:57.858Z,3.30
2018-09-03T20:22:25.566Z,3.47
2018-09-03T20:24:53.267Z,3.27
2018-09-03T20:27:20.952Z,2.80
2018-09-03T20:29:48.666Z,3.90
2018-09-03T20:32:16.347Z,3.70
2018-09-03T20:34:44.028Z,3.30
2018-09-03T20:37:11.707Z,2.43
2018-09-03T20:39:39.472Z,2.90
2018-09-03T20:42:07.404Z,2.40
2018-09-03T20:44:35.151Z,3.37
2018-09-03T20:47:02.908Z,2.93
2018-09-03T20:49:30.611Z,4.57
2018-09-03T20:51:58.324Z,3.60
2018-09-03T20:54:26.005Z,4.00
2018-09-03T20:56:53.775Z,3.67
2018-09-03T20:59:21.503Z,3.10
2018-09-03T21:01:49.196Z,4.13
2018-09-03T21:04:16.965Z,3.70
2018-09-03T21:06:44.740Z,3.30
2018-09-03T21:09:12.441Z,1.97
2018-09-03T21:11:40.147Z,4.40
2018-09-03T21:14:07.901Z,3.90
2018-09-03T21:16:35.551Z,4.97
2018-09-03T21:19:03.492Z,4.43
2018-09-03T21:21:31.331Z,6.10
2018-09-03T21:23:59.099Z,4.83
2018-09-03T21:26:26.797Z,5.07
2018-09-03T21:28:54.488Z,6.43
2018-09-03T21:31:22.164Z,5.83
2018-09-03T21:33:49.853Z,7.17
2018-09-03T21:36:17.525Z,6.20
2018-09-03T21:38:45.213Z,8.30
2018-09-03T21:41:12.996Z,5.63
2018-09-03T21:43:40.694Z,6.10
2018-09-03T21:46:08.763Z,6.00
2018-09-03T21:48:36.469Z,5.83
2018-09-03T21:51:04.171Z,5.87
2018-09-03T21:53:31.928Z,5.33
2018-09-03T21:55:59.745Z,4.63
2018-09-03T21:58:27.711Z,6.23
2018-09-03T22:00:55.428Z,6.03
2018-09-03T22:03:23.120Z,5.80
2018-09-03T22:05:50.807Z,5.90
2018-09-03T22:08:18.537Z,5.87
2018-09-03T22:10:46.224Z,5.77
2018-09-03T22:13:13.902Z,5.03
2018-09-03T22:15:41.620Z,5.40
2018-09-03T22:18:09.859Z,6.10
2018-09-03T22:20:37.904Z,7.53
2018-09-03T22:23:05.820Z,7.00
2018-09-03T22:25:33.500Z,5.53
2018-09-03T22:28:01.267Z,9.50
2018-09-03T22:30:29.116Z,12.67
2018-09-03T22:32:56.788Z,10.70
2018-09-03T22:35:24.493Z,9.97
2018-09-03T22:37:52.288Z,9.60
2018-09-03T22:40:19.947Z,9.40
2018-09-03T22:42:47.607Z,9.30
2018-09-03T22:45:15.364Z,9.27
2018-09-03T22:47:43.040Z,9.10
2018-09-03T22:50:10.756Z,9.17
2018-09-03T22:52:38.435Z,9.37
2018-09-03T22:55:06.229Z,10.40
2018-09-03T22:57:33.912Z,9.17
2018-09-03T23:00:01.656Z,10.23
2018-09-03T23:02:29.443Z,11.83
2018-09-03T23:04:57.176Z,11.93
2018-09-03T23:07:24.889Z,11.70
2018-09-03T23:09:52.567Z,11.80
2018-09-03T23:12:20.253Z,12.20
2018-09-03T23:14:47.959Z,10.20
2018-09-03T23:17:15.655Z,9.53
2018-09-03T23:19:43.364Z,9.70
2018-09-03T23:22:11.089Z,10.00
2018-09-03T23:24:38.776Z,11.37
2018-09-03T23:27:06.462Z,12.53
2018-09-03T23:29:34.237Z,9.53
2018-09-03T23:32:02.161Z,9.30
2018-09-03T23:34:29.844Z,10.17
2018-09-03T23:36:57.528Z,12.70
2018-09-03T23:39:25.215Z,16.13
2018-09-03T23:41:52.910Z,18.87
2018-09-03T23:44:20.673Z,11.37
2018-09-03T23:46:48.368Z,9.63
2018-09-03T23:49:16.064Z,12.60
2018-09-03T23:51:43.735Z,15.20
2018-09-03T23:54:11.512Z,9.30
2018-09-03T23:56:39.235Z,24.03
2018-09-03T23:59:06.975Z,25.00
